Time;durP1;ratioP1;P1;durP2;ratioP2;P2;SDS_P1;SDS_P2;PMS_P1;PMS_P2;Temp;Humidity;BMP_temperature;BMP_pressure;BME280_temperature;BME280_humidity;BME280_pressure;Samples;Min_cycle;Max_cycle;Signal;HPM_P1;HPM_P2
2023/05/05 00:00:52;;;;;;;10.10;7.28;;;;;;;17.35;100.00;101082.94;4932565;29;20849;-78
2023/05/05 00:03:19;;;;;;;21.20;8.13;;;;;;;17.35;100.00;101082.06;4934834;29;20039;-77
2023/05/05 00:05:45;;;;;;;12.98;7.45;;;;;;;17.35;100.00;101090.38;4918747;29;20570;-78
2023/05/05 00:08:10;;;;;;;13.55;6.72;;;;;;;17.32;100.00;101091.56;4918423;29;20122;-78
2023/05/05 00:10:36;;;;;;;11.73;6.95;;;;;;;17.30;100.00;101085.34;4894723;29;20063;-79
2023/05/05 00:13:02;;;;;;;17.65;7.55;;;;;;;17.30;100.00;101082.56;4886668;29;20047;-79
2023/05/05 00:15:28;;;;;;;11.02;6.93;;;;;;;17.23;100.00;101089.75;4935582;29;20042;-79
2023/05/05 00:17:53;;;;;;;12.98;7.00;;;;;;;17.18;100.00;101092.13;4902377;29;20428;-79
2023/05/05 00:20:19;;;;;;;12.25;7.07;;;;;;;17.07;100.00;101080.28;4934837;29;20040;-79
2023/05/05 00:22:44;;;;;;;18.33;7.72;;;;;;;17.10;100.00;101076.31;4932283;29;20075;-79
2023/05/05 00:25:10;;;;;;;9.43;6.80;;;;;;;16.99;100.00;101077.44;4886526;29;20047;-78
2023/05/05 00:27:36;;;;;;;14.63;7.43;;;;;;;16.98;100.00;101084.00;4915545;29;20036;-78
2023/05/05 00:30:02;;;;;;;19.20;8.18;;;;;;;16.93;100.00;101082.75;4900690;29;20046;-78
2023/05/05 00:32:27;;;;;;;18.42;7.82;;;;;;;16.93;100.00;101091.03;4901480;29;20035;-78
2023/05/05 00:34:53;;;;;;;13.50;8.48;;;;;;;16.89;100.00;101084.97;4900858;29;20499;-78
2023/05/05 00:37:18;;;;;;;11.55;7.65;;;;;;;16.91;100.00;101085.66;4914784;29;20051;-78
2023/05/05 00:39:44;;;;;;;17.77;8.10;;;;;;;16.79;100.00;101089.63;4919847;29;20099;-79
2023/05/05 00:42:09;;;;;;;16.60;8.30;;;;;;;16.67;100.00;101097.28;4917281;29;20028;-78
2023/05/05 00:44:40;;;;;;;18.00;8.75;;;;;;;16.66;100.00;101096.44;4926419;29;20047;-79
2023/05/05 00:47:07;;;;;;;21.85;8.20;;;;;;;16.68;100.00;101087.97;4936777;29;20035;-79
2023/05/05 00:49:34;;;;;;;15.13;9.40;;;;;;;16.68;100.00;101085.22;4934778;29;20048;-78
2023/05/05 00:52:02;;;;;;;15.18;9.63;;;;;;;16.75;100.00;101089.09;4931025;29;20436;-79
2023/05/05 00:54:28;;;;;;;19.73;9.85;;;;;;;16.76;100.00;101103.78;4935675;29;20118;-79
2023/05/05 00:56:54;;;;;;;16.88;9.48;;;;;;;16.76;100.00;101104.66;4889161;29;20131;-78
2023/05/05 00:59:19;;;;;;;16.45;10.10;;;;;;;16.78;100.00;101110.03;4938420;29;20161;-78
2023/05/05 01:01:45;;;;;;;19.83;10.95;;;;;;;16.80;100.00;101096.91;4917941;29;20506;-78
2023/05/05 01:04:11;;;;;;;19.88;10.77;;;;;;;16.66;100.00;101096.44;4932668;29;20039;-79
2023/05/05 01:06:58;;;;;;;27.02;10.75;;;;;;;16.69;100.00;101109.94;4903974;29;20040;-78
2023/05/05 01:09:49;;;;;;;14.40;10.77;;;;;;;16.63;100.00;101112.47;4917779;29;20032;-78
2023/05/05 01:12:54;;;;;;;17.40;11.30;;;;;;;16.65;100.00;101102.97;4920715;29;20044;-79
2023/05/05 01:15:43;;;;;;;24.17;11.32;;;;;;;16.55;100.00;101104.94;4926521;29;20032;-78
2023/05/05 01:18:50;;;;;;;16.05;10.60;;;;;;;16.51;100.00;101111.78;4928165;29;20047;-79
2023/05/05 01:21:25;;;;;;;18.73;11.45;;;;;;;16.48;100.00;101114.88;4854853;29;20041;-79
2023/05/05 01:24:18;;;;;;;17.15;11.55;;;;;;;16.40;100.00;101120.28;4858436;29;20034;-79
2023/05/05 01:26:46;;;;;;;21.63;11.82;;;;;;;16.37;100.00;101121.47;4908329;29;20058;-79
2023/05/05 01:29:37;;;;;;;24.83;12.10;;;;;;;16.34;100.00;101114.34;4908224;29;20044;-79
2023/05/05 01:32:15;;;;;;;21.67;12.68;;;;;;;16.29;100.00;101122.22;4951725;29;20065;-79
2023/05/05 01:35:11;;;;;;;25.30;13.15;;;;;;;16.28;100.00;101128.78;4918518;29;20036;-79
2023/05/05 01:38:04;;;;;;;24.77;13.05;;;;;;;16.16;100.00;101124.47;4933522;29;20035;-79
2023/05/05 01:40:36;;;;;;;22.70;12.70;;;;;;;16.17;100.00;101123.47;4933806;28;20249;-79
2023/05/05 01:43:03;;;;;;;20.20;13.33;;;;;;;16.15;100.00;101122.72;4917282;29;20173;-79
2023/05/05 01:45:32;;;;;;;22.25;14.52;;;;;;;16.04;100.00;101114.63;4936631;29;20420;-78
2023/05/05 01:47:59;;;;;;;27.23;14.68;;;;;;;16.01;100.00;101120.47;4939638;29;20062;-79
2023/05/05 01:50:27;;;;;;;25.00;14.38;;;;;;;16.02;100.00;101113.91;4931164;29;20039;-78
2023/05/05 01:52:53;;;;;;;20.77;14.43;;;;;;;15.92;100.00;101122.22;4934202;29;20426;-79
2023/05/05 01:55:23;;;;;;;21.40;13.90;;;;;;;15.84;100.00;101114.69;4936823;29;20043;-78
2023/05/05 01:57:50;;;;;;;18.98;13.30;;;;;;;15.85;100.00;101112.81;4935960;29;20399;-78
2023/05/05 02:00:18;;;;;;;18.17;12.25;;;;;;;15.85;100.00;101110.91;4936123;29;20044;-78
2023/05/05 02:02:48;;;;;;;17.15;10.73;;;;;;;15.86;100.00;101109.03;4935785;29;20066;-77
2023/05/05 02:05:18;;;;;;;13.48;10.77;;;;;;;15.86;100.00;101109.88;4936962;29;20043;-79
2023/05/05 02:07:45;;;;;;;22.65;11.73;;;;;;;15.76;100.00;101111.81;4932799;29;20103;-78
2023/05/05 02:10:12;;;;;;;18.85;11.55;;;;;;;15.71;100.00;101114.09;4920514;29;20110;-79
2023/05/05 02:12:39;;;;;;;17.33;10.75;;;;;;;15.77;100.00;101119.06;4935987;29;20047;-79
2023/05/05 02:15:06;;;;;;;17.10;11.23;;;;;;;15.67;100.00;101127.31;4899165;29;20040;-81
2023/05/05 02:17:32;;;;;;;19.45;10.20;;;;;;;15.61;100.00;101122.41;4929582;29;20028;-79
2023/05/05 02:20:01;;;;;;;15.73;10.35;;;;;;;15.48;100.00;101125.50;4936377;29;20039;-79
2023/05/05 02:22:26;;;;;;;18.00;11.27;;;;;;;15.53;100.00;101125.91;4934675;29;20035;-79
2023/05/05 02:24:53;;;;;;;16.67;10.25;;;;;;;15.39;100.00;101123.59;4936306;29;20047;-79
2023/05/05 02:27:20;;;;;;;14.77;9.82;;;;;;;15.42;100.00;101123.31;4930362;29;21728;-79
2023/05/05 02:29:49;;;;;;;13.45;9.02;;;;;;;15.37;100.00;101126.50;4938790;29;20162;-80
2023/05/05 02:32:32;;;;;;;14.02;9.75;;;;;;;15.37;100.00;101136.69;4932019;29;20082;-80
2023/05/05 02:35:06;;;;;;;17.33;9.90;;;;;;;15.24;100.00;101136.97;4933752;29;20040;-80
2023/05/05 02:37:32;;;;;;;13.88;9.50;;;;;;;15.20;100.00;101132.72;4936309;29;20027;-80
2023/05/05 02:40:04;;;;;;;15.80;9.43;;;;;;;15.15;100.00;101135.94;4930902;29;20032;-79
2023/05/05 02:42:50;;;;;;;13.68;8.75;;;;;;;15.14;100.00;101136.09;4933093;29;20127;-80
2023/05/05 02:45:18;;;;;;;14.15;8.95;;;;;;;14.97;100.00;101141.31;4932710;29;20510;-78
2023/05/05 02:47:44;;;;;;;15.43;9.48;;;;;;;14.96;100.00;101138.69;4935753;29;20719;-80
2023/05/05 02:50:10;;;;;;;18.60;9.77;;;;;;;15.02;100.00;101152.78;4929677;29;20051;-80
2023/05/05 02:52:36;;;;;;;19.08;9.73;;;;;;;14.96;100.00;101149.72;4933036;29;20123;-80
2023/05/05 02:55:03;;;;;;;14.18;9.23;;;;;;;14.94;100.00;101146.22;4933309;29;20392;-79
2023/05/05 02:58:05;;;;;;;18.88;9.32;;;;;;;14.93;100.00;101138.97;4933308;29;20501;-79
2023/05/05 03:00:39;;;;;;;13.60;9.15;;;;;;;14.96;100.00;101150.59;4937395;29;20032;-80
2023/05/05 03:03:15;;;;;;;17.80;10.13;;;;;;;14.91;100.00;101152.03;4934202;29;20047;-79
2023/05/05 03:05:46;;;;;;;22.90;12.23;;;;;;;14.81;100.00;101154.78;4927951;29;20047;-79
2023/05/05 03:08:43;;;;;;;18.05;12.32;;;;;;;14.73;100.00;101154.63;4934940;29;20063;-80
2023/05/05 03:11:17;;;;;;;20.10;13.98;;;;;;;14.72;100.00;101155.63;4931773;29;20043;-79
2023/05/05 03:13:49;;;;;;;19.80;13.77;;;;;;;14.65;100.00;101152.56;4929828;29;20484;-80
2023/05/05 03:16:17;;;;;;;25.85;15.68;;;;;;;14.67;100.00;101159.66;4930988;29;20464;-79
2023/05/05 03:18:46;;;;;;;23.77;15.82;;;;;;;14.68;100.00;101155.03;4935372;29;20040;-80
2023/05/05 03:21:13;;;;;;;25.42;15.00;;;;;;;14.64;100.00;101157.19;4933846;29;20407;-79
2023/05/05 03:23:38;;;;;;;30.40;15.27;;;;;;;14.60;100.00;101161.22;4934421;29;20035;-79
2023/05/05 03:26:04;;;;;;;25.17;15.95;;;;;;;14.56;100.00;101164.38;4932272;29;20060;-79
2023/05/05 03:28:29;;;;;;;24.88;15.18;;;;;;;14.56;100.00;101158.84;4936875;29;20043;-79
2023/05/05 03:30:55;;;;;;;23.45;15.30;;;;;;;14.53;100.00;101162.78;4934767;29;20119;-79
2023/05/05 03:33:20;;;;;;;25.52;15.27;;;;;;;14.44;100.00;101155.34;4932867;29;20039;-79
2023/05/05 03:35:46;;;;;;;27.85;16.60;;;;;;;14.47;100.00;101163.34;4914186;29;20098;-79
2023/05/05 03:38:11;;;;;;;25.73;15.60;;;;;;;14.45;100.00;101163.47;4924796;29;20068;-79
2023/05/05 03:40:36;;;;;;;30.92;16.55;;;;;;;14.48;100.00;101165.09;4898973;29;20035;-78
2023/05/05 03:43:02;;;;;;;27.40;17.77;;;;;;;14.36;100.00;101171.69;4929342;29;20090;-79
2023/05/05 03:45:27;;;;;;;27.45;18.15;;;;;;;14.22;100.00;101172.94;4916645;29;20082;-79
2023/05/05 03:47:53;;;;;;;28.77;18.42;;;;;;;14.22;100.00;101183.97;4917351;29;20043;-79
2023/05/05 03:50:18;;;;;;;31.30;19.10;;;;;;;14.20;100.00;101185.97;4932078;29;20036;-79
2023/05/05 03:52:44;;;;;;;34.95;18.98;;;;;;;14.20;100.00;101194.22;4898946;29;20035;-79
2023/05/05 03:55:09;;;;;;;30.95;19.35;;;;;;;14.13;100.00;101196.66;4933383;29;20631;-79
2023/05/05 03:57:35;;;;;;;30.00;19.73;;;;;;;14.10;100.00;101192.31;4914726;29;20115;-78
2023/05/05 04:00:00;;;;;;;30.05;20.00;;;;;;;14.07;100.00;101189.84;4933045;29;20048;-78
2023/05/05 04:02:26;;;;;;;31.65;19.27;;;;;;;14.07;100.00;101198.09;4930323;29;20398;-78
2023/05/05 04:04:52;;;;;;;31.83;19.50;;;;;;;13.97;100.00;101195.28;4909486;29;20043;-79
2023/05/05 04:07:17;;;;;;;34.40;20.02;;;;;;;13.95;100.00;101201.91;4932779;29;20098;-78
2023/05/05 04:09:43;;;;;;;32.00;19.83;;;;;;;13.96;100.00;101203.66;4936102;29;20470;-78
2023/05/05 04:12:12;;;;;;;33.38;21.08;;;;;;;13.94;100.00;101202.94;4938645;29;20599;-78
2023/05/05 04:14:38;;;;;;;29.83;19.63;;;;;;;13.88;100.00;101203.47;4906840;29;20035;-78
2023/05/05 04:17:05;;;;;;;33.95;19.10;;;;;;;13.82;100.00;101209.50;4933640;29;20034;-79
2023/05/05 04:19:33;;;;;;;31.48;19.42;;;;;;;13.84;100.00;101196.47;4912733;29;20051;-79
2023/05/05 04:21:59;;;;;;;30.73;19.58;;;;;;;13.78;100.00;101207.00;4936935;29;20111;-78
2023/05/05 04:24:25;;;;;;;37.50;19.27;;;;;;;13.89;100.00;101203.34;4936016;28;20138;-78
2023/05/05 04:26:51;;;;;;;29.73;19.00;;;;;;;13.89;100.00;101210.72;4921067;29;20512;-78
2023/05/05 04:29:17;;;;;;;26.38;17.30;;;;;;;13.87;100.00;101215.47;4936111;29;20526;-78
2023/05/05 04:31:43;;;;;;;32.15;19.30;;;;;;;13.82;100.00;101210.38;4936071;29;20036;-78
2023/05/05 04:34:09;;;;;;;29.80;17.83;;;;;;;13.77;100.00;101207.16;4920967;29;20054;-81
2023/05/05 04:36:34;;;;;;;31.77;19.00;;;;;;;13.83;100.00;101211.25;4936178;29;20039;-79
2023/05/05 04:39:05;;;;;;;28.90;17.63;;;;;;;13.86;100.00;101220.13;4905087;29;20392;-80
2023/05/05 04:41:31;;;;;;;28.20;16.65;;;;;;;13.85;100.00;101212.00;4920326;29;20050;-79
2023/05/05 04:43:56;;;;;;;23.38;16.48;;;;;;;13.90;100.00;101221.56;4935439;29;20118;-81
2023/05/05 04:46:23;;;;;;;24.60;16.23;;;;;;;14.06;100.00;101218.34;4918401;29;20048;-80
2023/05/05 04:48:49;;;;;;;23.33;15.32;;;;;;;14.11;100.00;101213.31;4926631;29;20408;-77
2023/05/05 04:51:14;;;;;;;24.45;15.10;;;;;;;14.11;100.00;101216.06;4935740;29;20048;-79
2023/05/05 04:53:40;;;;;;;23.83;15.00;;;;;;;14.14;100.00;101221.31;4907202;29;20036;-79
2023/05/05 04:56:05;;;;;;;23.77;14.43;;;;;;;14.15;100.00;101214.81;4936893;29;20047;-78
2023/05/05 04:58:31;;;;;;;27.30;14.77;;;;;;;14.19;100.00;101212.66;4904111;29;20036;-79
2023/05/05 05:00:56;;;;;;;24.88;14.20;;;;;;;14.18;100.00;101208.13;4919296;29;20040;-79
2023/05/05 05:03:22;;;;;;;20.92;13.05;;;;;;;14.27;100.00;101207.31;4899225;29;20373;-79
2023/05/05 05:05:47;;;;;;;23.75;13.63;;;;;;;14.30;100.00;101214.47;4927615;29;20122;-78
2023/05/05 05:08:16;;;;;;;23.52;14.00;;;;;;;14.25;100.00;101216.72;4934871;29;20123;-78
2023/05/05 05:10:42;;;;;;;20.58;13.25;;;;;;;14.27;100.00;101215.59;4926931;29;20087;-78
2023/05/05 05:13:08;;;;;;;20.48;12.73;;;;;;;14.36;100.00;101224.91;4936287;29;20040;-78
2023/05/05 05:15:36;;;;;;;20.58;13.60;;;;;;;14.33;100.00;101226.06;4935990;29;20044;-78
2023/05/05 05:18:02;;;;;;;22.73;12.82;;;;;;;14.49;100.00;101227.44;4936469;29;20395;-78
2023/05/05 05:20:29;;;;;;;22.42;13.25;;;;;;;14.53;100.00;101231.69;4904493;29;20039;-79
2023/05/05 05:22:56;;;;;;;19.92;12.70;;;;;;;14.64;100.00;101219.69;4933829;29;20056;-78
2023/05/05 05:25:21;;;;;;;19.10;12.02;;;;;;;14.82;100.00;101214.38;4934158;28;20063;-78
2023/05/05 05:27:47;;;;;;;17.90;11.90;;;;;;;14.82;100.00;101198.75;4938072;29;20043;-78
2023/05/05 05:30:12;;;;;;;17.98;12.07;;;;;;;14.88;100.00;101216.59;4921152;29;20126;-78
2023/05/05 05:32:38;;;;;;;17.48;12.35;;;;;;;14.96;100.00;101213.13;4904041;29;20551;-78
2023/05/05 05:35:03;;;;;;;21.40;12.95;;;;;;;14.85;100.00;101219.63;4918290;29;20040;-77
2023/05/05 05:37:29;;;;;;;19.45;12.70;;;;;;;14.99;100.00;101222.00;4935839;29;20506;-78
2023/05/05 05:39:55;;;;;;;21.38;12.68;;;;;;;15.07;100.00;101243.38;4915531;29;20198;-78
2023/05/05 05:42:21;;;;;;;24.50;12.38;;;;;;;15.05;100.00;101249.00;4919972;29;20542;-77
2023/05/05 05:44:47;;;;;;;20.80;12.00;;;;;;;15.26;100.00;101250.78;4932687;29;20460;-78
2023/05/05 05:47:13;;;;;;;19.55;11.90;;;;;;;15.20;100.00;101246.72;4934809;29;20035;-78
2023/05/05 05:49:39;;;;;;;20.75;12.32;;;;;;;15.42;100.00;101256.63;4918756;29;20039;-77
2023/05/05 05:52:05;;;;;;;19.10;12.35;;;;;;;15.21;100.00;101245.69;4933872;29;20116;-78
2023/05/05 05:54:33;;;;;;;22.90;12.18;;;;;;;15.45;100.00;101249.97;4919150;29;20260;-78
2023/05/05 05:56:58;;;;;;;21.30;12.15;;;;;;;15.46;100.00;101246.16;4904759;29;20086;-78
2023/05/05 05:59:24;;;;;;;20.27;12.10;;;;;;;15.47;100.00;101255.34;4926449;29;20027;-77
2023/05/05 06:01:49;;;;;;;18.20;12.10;;;;;;;15.70;100.00;101251.25;4918319;29;20099;-78
2023/05/05 06:04:15;;;;;;;21.20;13.23;;;;;;;15.88;100.00;101256.97;4898404;29;20114;-79
2023/05/05 06:06:40;;;;;;;18.08;11.82;;;;;;;15.98;100.00;101256.94;4897827;29;20045;-79
2023/05/05 06:09:06;;;;;;;18.70;11.32;;;;;;;16.21;100.00;101257.50;4933957;29;20042;-80
2023/05/05 06:11:33;;;;;;;16.15;10.60;;;;;;;16.28;100.00;101266.06;4926523;29;20061;-78
2023/05/05 06:13:59;;;;;;;18.23;11.05;;;;;;;16.70;100.00;101266.50;4916109;29;20028;-80
2023/05/05 06:16:24;;;;;;;15.85;10.73;;;;;;;16.90;100.00;101272.00;4884772;29;20058;-78
2023/05/05 06:18:50;;;;;;;15.25;10.68;;;;;;;17.23;100.00;101275.16;4916307;29;20257;-78
2023/05/05 06:21:16;;;;;;;14.90;9.88;;;;;;;17.33;100.00;101278.78;4934734;29;20104;-78
2023/05/05 06:23:42;;;;;;;13.38;8.57;;;;;;;17.71;100.00;101285.06;4936209;29;20074;-79
2023/05/05 06:26:08;;;;;;;15.77;9.77;;;;;;;17.30;100.00;101280.97;4915277;29;20063;-78
2023/05/05 06:28:33;;;;;;;16.13;9.30;;;;;;;17.22;100.00;101276.22;4918264;29;20042;-78
2023/05/05 06:30:58;;;;;;;11.55;8.63;;;;;;;17.95;100.00;101289.13;4899125;29;20102;-78
2023/05/05 06:33:24;;;;;;;17.20;9.68;;;;;;;18.29;100.00;101288.38;4930666;29;20054;-77
2023/05/05 06:35:51;;;;;;;13.80;9.23;;;;;;;18.22;100.00;101301.13;4900778;29;20080;-78
2023/05/05 06:38:16;;;;;;;16.13;9.65;;;;;;;18.05;100.00;101294.56;4926932;29;20388;-79
2023/05/05 06:40:41;;;;;;;18.25;9.77;;;;;;;17.79;100.00;101299.00;4929353;29;20044;-78
2023/05/05 06:43:07;;;;;;;22.52;11.20;;;;;;;17.68;100.00;101293.69;4910223;29;20101;-79
2023/05/05 06:45:32;;;;;;;20.67;11.20;;;;;;;18.00;100.00;101298.72;4910117;29;20043;-78
2023/05/05 06:47:58;;;;;;;22.80;12.43;;;;;;;18.66;100.00;101303.84;4916272;29;20040;-78
2023/05/05 06:50:24;;;;;;;20.83;12.32;;;;;;;18.67;100.00;101297.28;4902621;29;20122;-78
2023/05/05 06:52:49;;;;;;;22.35;11.38;;;;;;;18.71;100.00;101302.34;4919454;29;20043;-79
2023/05/05 06:55:15;;;;;;;21.25;12.35;;;;;;;18.89;100.00;101305.09;4927065;29;20058;-79
2023/05/05 06:57:41;;;;;;;22.02;12.15;;;;;;;19.14;100.00;101301.56;4901838;29;20040;-80
2023/05/05 07:00:10;;;;;;;23.88;11.98;;;;;;;19.36;100.00;101306.50;4933397;29;20039;-78
2023/05/05 07:02:37;;;;;;;21.08;11.40;;;;;;;19.04;100.00;101305.34;4935589;29;20051;-79
2023/05/05 07:05:03;;;;;;;18.73;10.95;;;;;;;19.57;100.00;101300.50;4930314;29;20035;-78
2023/05/05 07:07:28;;;;;;;20.77;11.80;;;;;;;19.76;100.00;101306.84;4930655;29;20031;-79
2023/05/05 07:09:54;;;;;;;21.45;11.38;;;;;;;19.67;100.00;101299.47;4934129;29;20044;-78
2023/05/05 07:12:20;;;;;;;18.55;10.82;;;;;;;19.89;100.00;101306.31;4903447;29;20117;-78
2023/05/05 07:14:46;;;;;;;20.38;10.52;;;;;;;20.37;100.00;101301.81;4935715;29;20114;-78
2023/05/05 07:17:11;;;;;;;20.38;10.68;;;;;;;20.46;100.00;101308.22;4915795;29;20131;-79
2023/05/05 07:19:37;;;;;;;20.00;10.52;;;;;;;20.46;100.00;101311.00;4932719;29;20058;-78
2023/05/05 07:22:02;;;;;;;23.80;11.90;;;;;;;20.54;100.00;101313.78;4927674;29;20488;-79
2023/05/05 07:24:28;;;;;;;16.85;10.27;;;;;;;21.49;100.00;101313.03;4896591;29;20048;-79
2023/05/05 07:26:53;;;;;;;20.23;10.93;;;;;;;20.73;100.00;101313.44;4916834;29;20276;-78
2023/05/05 07:29:19;;;;;;;28.90;12.35;;;;;;;20.96;100.00;101318.25;4929980;29;20043;-78
2023/05/05 07:31:44;;;;;;;26.35;12.07;;;;;;;20.66;100.00;101325.44;4930941;29;20080;-79
2023/05/05 07:34:10;;;;;;;23.83;11.10;;;;;;;21.16;100.00;101327.06;4915442;29;20035;-78
2023/05/05 07:36:35;;;;;;;19.08;11.15;;;;;;;21.34;100.00;101329.59;4917882;29;20044;-80
2023/05/05 07:39:01;;;;;;;15.27;9.80;;;;;;;21.23;100.00;101321.63;4935577;29;20581;-79
2023/05/05 07:41:26;;;;;;;16.58;8.90;;;;;;;22.20;98.21;101327.72;4935402;29;20043;-79
2023/05/05 07:43:52;;;;;;;16.75;7.85;;;;;;;22.28;90.93;101323.97;4933553;29;20061;-79
2023/05/05 07:46:17;;;;;;;14.93;7.13;;;;;;;21.72;92.06;101332.56;4921567;29;20071;-79
2023/05/05 07:48:43;;;;;;;10.40;5.95;;;;;;;21.53;93.91;101327.44;4905637;29;20032;-79
2023/05/05 07:51:09;;;;;;;12.77;6.15;;;;;;;21.65;93.42;101317.63;4919447;29;20480;-78
2023/05/05 07:53:36;;;;;;;14.75;5.22;;;;;;;22.27;88.11;101325.03;4938450;29;20065;-79
2023/05/05 07:56:02;;;;;;;8.27;4.88;;;;;;;22.19;86.40;101319.53;4925421;29;20036;-78
2023/05/05 07:58:27;;;;;;;9.30;5.25;;;;;;;21.95;87.58;101320.59;4935484;29;20034;-78
2023/05/05 08:00:52;;;;;;;5.05;3.60;;;;;;;21.97;82.25;101308.19;4938779;29;20051;-78
2023/05/05 08:03:20;;;;;;;9.57;3.88;;;;;;;21.11;88.41;101313.69;4906488;29;20118;-78
2023/05/05 08:05:45;;;;;;;8.15;4.13;;;;;;;22.04;80.40;101313.91;4916866;29;20507;-78
2023/05/05 08:08:11;;;;;;;6.43;3.50;;;;;;;21.72;86.04;101306.63;4919521;29;20040;-77
2023/05/05 08:10:37;;;;;;;5.68;3.22;;;;;;;22.45;78.34;101312.69;4936954;29;20488;-78
2023/05/05 08:13:02;;;;;;;7.38;3.75;;;;;;;21.90;79.56;101311.91;4939346;29;20039;-78
2023/05/05 08:15:27;;;;;;;6.22;3.45;;;;;;;22.01;79.91;101309.56;4921905;29;20062;-78
2023/05/05 08:17:54;;;;;;;3.35;2.13;;;;;;;22.13;73.01;101304.41;4921872;29;20028;-78
2023/05/05 08:20:20;;;;;;;6.43;3.38;;;;;;;21.37;82.94;101300.53;4928250;29;20514;-79
2023/05/05 08:22:46;;;;;;;7.32;3.40;;;;;;;21.65;78.36;101300.91;4919316;29;20036;-78
2023/05/05 08:25:12;;;;;;;6.32;3.83;;;;;;;21.83;78.05;101300.63;4936776;28;20130;-78
2023/05/05 08:27:40;;;;;;;10.80;3.80;;;;;;;22.28;77.15;101303.59;4937115;29;20407;-78
2023/05/05 08:30:06;;;;;;;10.98;4.03;;;;;;;22.30;74.10;101299.59;4936388;29;20036;-78
2023/05/05 08:32:32;;;;;;;8.15;2.88;;;;;;;22.94;70.53;101304.69;4937903;29;20047;-79
2023/05/05 08:34:57;;;;;;;5.93;3.03;;;;;;;22.04;73.15;101305.53;4906013;29;20039;-79
2023/05/05 08:37:24;;;;;;;10.10;2.60;;;;;;;21.82;70.70;101302.56;4918736;29;20032;-78
2023/05/05 08:39:50;;;;;;;4.18;2.05;;;;;;;21.71;71.77;101300.19;4906750;29;20495;-78
2023/05/05 08:42:15;;;;;;;1.73;1.00;;;;;;;21.95;66.15;101309.44;4904911;29;20039;-79
2023/05/05 08:44:41;;;;;;;1.13;0.90;;;;;;;21.62;67.02;101310.50;4905785;29;20619;-79
2023/05/05 08:47:09;;;;;;;3.78;1.50;;;;;;;21.77;69.04;101302.22;4905577;29;20040;-78
2023/05/05 08:49:44;;;;;;;2.92;1.30;;;;;;;21.80;67.89;101303.78;4917906;29;20032;-78
2023/05/05 08:52:22;;;;;;;3.42;1.73;;;;;;;22.09;64.98;101300.25;4929541;29;20400;-78
2023/05/05 08:54:56;;;;;;;4.05;1.50;;;;;;;22.70;62.95;101317.00;4937422;29;20035;-78
2023/05/05 08:57:31;;;;;;;4.65;1.83;;;;;;;22.46;64.92;101318.09;4935338;29;20043;-78
2023/05/05 08:59:58;;;;;;;4.50;1.90;;;;;;;22.16;69.23;101315.19;4926708;29;20020;-78
2023/05/05 09:02:27;;;;;;;7.88;2.22;;;;;;;21.78;68.66;101311.47;4937279;29;20036;-78
2023/05/05 09:04:53;;;;;;;5.10;2.00;;;;;;;22.33;69.08;101310.38;4921380;29;20042;-79
2023/05/05 09:07:18;;;;;;;5.97;2.03;;;;;;;22.64;68.46;101316.88;4933080;29;20482;-79
2023/05/05 09:09:44;;;;;;;3.83;1.70;;;;;;;22.92;66.38;101320.78;4905468;29;20096;-78
2023/05/05 09:12:10;;;;;;;3.25;2.10;;;;;;;22.45;66.08;101319.16;4921578;29;20118;-79
2023/05/05 09:14:35;;;;;;;6.07;2.20;;;;;;;22.05;68.31;101321.19;4938718;29;20064;-78
2023/05/05 09:17:02;;;;;;;3.65;1.90;;;;;;;21.65;70.11;101323.22;4936404;29;20427;-79
2023/05/05 09:19:27;;;;;;;8.38;1.63;;;;;;;21.93;70.82;101320.75;4941060;29;20073;-78
2023/05/05 09:21:54;;;;;;;4.32;2.40;;;;;;;21.25;75.88;101316.75;4941949;29;20064;-78
2023/05/05 09:24:20;;;;;;;5.55;1.98;;;;;;;20.95;78.90;101322.06;4937136;28;20036;-78
2023/05/05 09:26:46;;;;;;;4.60;1.60;;;;;;;21.19;77.49;101326.72;4920592;29;20122;-78
2023/05/05 09:29:19;;;;;;;5.13;2.20;;;;;;;20.94;79.45;101328.72;4920712;29;20047;-77
2023/05/05 09:32:07;;;;;;;5.60;2.67;;;;;;;21.14;79.41;101329.16;4905094;29;20119;-78
2023/05/05 09:34:34;;;;;;;3.45;2.15;;;;;;;20.93;81.11;101335.31;4913871;29;20071;-78
2023/05/05 09:37:00;;;;;;;4.05;1.92;;;;;;;20.59;80.22;101316.03;4921536;29;20043;-77
2023/05/05 09:39:25;;;;;;;2.03;1.27;;;;;;;20.70;82.09;101322.13;4920829;29;20027;-77
2023/05/05 09:41:51;;;;;;;7.40;1.80;;;;;;;20.77;83.13;101324.22;4937522;29;20042;-77
2023/05/05 09:44:32;;;;;;;2.92;2.25;;;;;;;20.74;80.74;101322.66;4917814;29;20059;-77
2023/05/05 09:46:58;;;;;;;7.00;2.17;;;;;;;20.65;82.66;101318.16;4936377;29;20079;-78
2023/05/05 09:49:25;;;;;;;4.22;2.55;;;;;;;20.77;83.34;101324.22;4936071;29;20079;-78
2023/05/05 09:51:51;;;;;;;4.00;1.60;;;;;;;20.71;77.62;101323.88;4889839;29;20521;-78
2023/05/05 09:54:25;;;;;;;5.57;2.10;;;;;;;20.49;83.46;101322.66;4919773;29;20099;-78
2023/05/05 09:56:51;;;;;;;3.65;2.10;;;;;;;20.56;82.68;101320.03;4935394;29;20043;-78
2023/05/05 09:59:17;;;;;;;5.47;2.90;;;;;;;20.56;84.03;101318.16;4936056;29;20059;-78
2023/05/05 10:01:43;;;;;;;4.97;2.45;;;;;;;20.71;82.47;101317.44;4934843;29;20036;-78
2023/05/05 10:04:28;;;;;;;5.00;1.95;;;;;;;20.73;85.27;101312.59;4920077;29;20036;-78
2023/05/05 10:06:55;;;;;;;5.65;2.55;;;;;;;20.80;79.80;101308.03;4936151;29;20063;-78
2023/05/05 10:09:22;;;;;;;5.70;1.90;;;;;;;20.78;79.75;101309.28;4917252;29;20044;-78
2023/05/05 10:11:48;;;;;;;10.90;2.22;;;;;;;20.41;81.18;101314.31;4929038;29;20059;-78
2023/05/05 10:14:15;;;;;;;4.88;2.20;;;;;;;20.18;81.12;101306.69;4935313;29;20082;-78
2023/05/05 10:17:00;;;;;;;5.95;2.17;;;;;;;20.52;78.74;101313.09;4896301;29;20495;-79
2023/05/05 10:19:28;;;;;;;2.80;1.95;;;;;;;20.38;79.54;101307.22;4936276;29;20036;-78
2023/05/05 10:22:01;;;;;;;3.15;1.92;;;;;;;20.29;80.13;101301.81;4937884;29;20035;-79
2023/05/05 10:24:41;;;;;;;6.35;2.00;;;;;;;19.97;83.63;101301.66;4933638;28;20067;-77
2023/05/05 10:27:14;;;;;;;4.20;1.90;;;;;;;19.97;78.07;101301.66;4923254;29;20031;-78
2023/05/05 10:29:45;;;;;;;3.38;1.63;;;;;;;20.41;80.11;101307.91;4934501;29;20063;-78
2023/05/05 10:32:20;;;;;;;4.75;2.05;;;;;;;20.22;79.86;101300.75;4936055;29;20059;-78
2023/05/05 10:34:53;;;;;;;9.02;2.10;;;;;;;20.13;81.85;101309.09;4935683;29;20035;-78
2023/05/05 10:37:19;;;;;;;;;;;;;;;20.21;85.22;101308.25;4935542;29;20036;-78
2023/05/05 10:39:46;;;;;;;6.72;1.92;;;;;;;20.19;85.54;101296.44;4935397;29;19910;-78
2023/05/05 10:42:13;;;;;;;4.80;2.13;;;;;;;20.15;88.77;101295.03;4936547;29;20058;-78
2023/05/05 10:44:40;;;;;;;5.40;1.88;;;;;;;19.92;89.28;101290.19;4934753;29;20036;-78
2023/05/05 10:47:06;;;;;;;6.05;1.83;;;;;;;19.77;93.39;101291.88;4934591;29;20046;-78
2023/05/05 10:49:50;;;;;;;5.47;1.42;;;;;;;19.82;93.95;101286.66;4882390;29;20051;-78
2023/05/05 10:52:56;;;;;;;3.92;1.88;;;;;;;19.47;95.47;101294.22;4936170;29;20050;-78
2023/05/05 10:55:40;;;;;;;6.60;2.42;;;;;;;19.42;100.00;101282.75;4908591;29;20043;-78
2023/05/05 10:58:06;;;;;;;6.30;2.10;;;;;;;19.26;100.00;101291.88;4934867;29;20035;-78
2023/05/05 11:00:37;;;;;;;5.20;2.05;;;;;;;19.04;100.00;101290.59;4934397;29;20044;-78
2023/05/05 11:03:15;;;;;;;3.60;2.03;;;;;;;18.78;100.00;101293.38;4935150;29;20372;-78
2023/05/05 11:06:11;;;;;;;5.38;2.22;;;;;;;18.62;100.00;101306.09;4930419;29;20036;-78
2023/05/05 11:08:39;;;;;;;10.48;2.72;;;;;;;18.19;100.00;101318.94;4932230;29;20063;-77
2023/05/05 11:11:05;;;;;;;9.93;3.60;;;;;;;17.66;100.00;101320.66;4934606;29;20036;-76
2023/05/05 11:13:31;;;;;;;17.40;5.25;;;;;;;17.18;100.00;101338.41;4934884;29;20111;-76
2023/05/05 11:15:58;;;;;;;16.55;5.72;;;;;;;16.17;100.00;101344.47;4918363;29;20508;-76